Capitol Logistics 418


KPVD
Theodore Francis Green State Airport
Providence, Rhode Island, US
KRFD
Chicago/Rockford International Airport
Rockford, Illinois, US

Route Details

Aircraft Information
Primary: Boeing 757-200SF
Backup: Boeing 737-800BCF
Route Data
Distance: 790nm
Sched. Duration: 1h 39m
Avg. Duration: 2h 27m (+88m)
Times Flown: 9
Recm'd Route: BAF HNK NUGNT DJB J60 JOT V171 RFD
Planned Altitude: 38,000ft
Origin Wx: KPVD 272351Z 26016KT 10SM BKN070 03/M10 A2957 RMK AO2 PK WND 27031/2304 SLP014 T00331100 10100 20033 53043
Dest. Wx: KRFD 272354Z 30009KT 10SM FEW038 FEW250 M03/M11 A3007 RMK AO2 SLP193 T10331111 10000 21033 53004
Notes:

Financial History
Total Freight: 419,271lbs
Average Load: 46,586lbs/flt
Fuel Used: 154,433lbs
Avg. Fuel Used: 17,159lbs/flt
Fuel Expense: $146,711
Avg. Fuel Expense: $16,301
Avg. Fuel Cost: $0.95/lbs
Total Gross Income: $542,219
Pilot Pay: $1,261
Total Expenses: $59,028
Total Revenue: $332,412
Average Revenue: $60,246.52